Time;durP1;ratioP1;P1;durP2;ratioP2;P2;SDS_P1;SDS_P2;PMS_P1;PMS_P2;Temp;Humidity;BMP_temperature;BMP_pressure;BME280_temperature;BME280_humidity;BME280_pressure;Samples;Min_cycle;Max_cycle;Signal;HPM_P1;HPM_P2
2021/01/27 00:02:17;;;;;;;29.95;12.45;;;4.50;99.90;;;;;;5049568;28;20013;-94
2021/01/27 00:04:43;;;;;;;31.02;12.65;;;4.60;99.90;;;;;;5057594;28;20018;-96
2021/01/27 00:18:30;;;;;;;15.27;7.68;;;5.10;99.90;;;;;;5237451;23;20051;-95
2021/01/27 00:23:31;;;;;;;18.83;7.65;;;5.30;99.90;;;;;;5595647;22;20053;-94
2021/01/27 00:25:57;;;;;;;21.52;9.30;;;5.40;99.90;;;;;;5047782;28;20035;-95
2021/01/27 00:28:25;;;;;;;14.70;6.50;;;5.50;99.90;;;;;;5040596;28;20044;-94
2021/01/27 00:30:53;;;;;;;17.65;7.85;;;5.50;99.90;;;;;;5058366;28;20040;-95
2021/01/27 00:33:19;;;;;;;12.13;6.18;;;5.60;99.90;;;;;;5296848;22;20079;-96
2021/01/27 00:35:48;;;;;;;14.60;6.15;;;5.60;99.90;;;;;;5054023;28;20049;-94
2021/01/27 01:09:02;;;;;;;24.48;10.80;;;6.00;99.90;;;;;;4996425;28;20078;-95
2021/01/27 06:18:26;;;;;;;41.65;10.90;;;7.10;99.90;;;;;;5045482;28;20052;-94
2021/01/27 06:20:58;;;;;;;;;;;7.10;99.90;;;;;;5030843;28;20033;-94
2021/01/27 06:45:51;;;;;;;43.55;10.65;;;7.10;99.90;;;;;;1392741;22;20452;-93
2021/01/27 06:48:45;;;;;;;72.15;13.10;;;7.20;99.90;;;;;;5045816;28;20042;-94
2021/01/27 06:51:38;;;;;;;62.50;11.93;;;7.10;99.90;;;;;;5047535;28;20037;-95
2021/01/27 06:54:06;;;;;;;69.50;14.52;;;7.20;99.90;;;;;;5069798;28;20037;-95
2021/01/27 06:56:37;;;;;;;52.92;13.50;;;7.10;99.90;;;;;;5060928;28;20028;-94
2021/01/27 06:59:06;;;;;;;;;;;7.20;99.90;;;;;;5045875;28;20033;-95
2021/01/27 07:02:22;;;;;;;59.88;11.73;;;7.10;99.90;;;;;;5059566;28;19927;-95
2021/01/27 07:05:00;;;;;;;54.47;12.73;;;7.20;99.90;;;;;;5015394;28;20029;-94
2021/01/27 07:07:45;;;;;;;51.83;12.80;;;7.20;99.90;;;;;;5039622;28;20064;-96
2021/01/27 07:10:28;;;;;;;51.85;12.90;;;7.20;99.90;;;;;;5045317;28;20048;-94
2021/01/27 07:13:35;;;;;;;57.85;15.13;;;7.10;99.90;;;;;;5034738;28;20041;-95
2021/01/27 07:16:05;;;;;;;51.70;15.38;;;7.10;99.90;;;;;;5035697;28;20017;-94
2021/01/27 07:18:52;;;;;;;54.88;13.00;;;7.10;99.90;;;;;;5034840;28;20021;-93
2021/01/27 07:21:32;;;;;;;55.25;12.75;;;7.10;99.90;;;;;;5032647;28;20037;-93
2021/01/27 07:24:22;;;;;;;55.55;14.35;;;7.10;99.90;;;;;;5032466;28;20484;-93
2021/01/27 07:27:00;;;;;;;53.25;13.60;;;7.10;99.90;;;;;;5050882;28;20021;-95
2021/01/27 07:29:47;;;;;;;37.72;8.63;;;7.10;99.90;;;;;;5035517;28;20028;-94
2021/01/27 07:32:43;;;;;;;49.47;13.13;;;7.10;99.90;;;;;;5034530;28;20028;-93
2021/01/27 07:35:19;;;;;;;55.30;12.48;;;7.10;99.90;;;;;;5034596;28;20056;-94
2021/01/27 07:38:14;;;;;;;52.90;10.13;;;7.10;99.90;;;;;;5032602;28;20025;-92
2021/01/27 07:40:43;;;;;;;61.53;12.98;;;7.10;99.90;;;;;;5031775;28;20498;-93
2021/01/27 07:43:47;;;;;;;48.28;11.05;;;7.10;99.90;;;;;;5032571;28;20029;-92
2021/01/27 07:46:21;;;;;;;56.47;12.25;;;7.10;99.90;;;;;;5026752;28;20156;-94
2021/01/27 07:49:10;;;;;;;55.22;12.40;;;7.10;99.90;;;;;;5068987;28;20056;-96
2021/01/27 07:52:03;;;;;;;53.58;12.70;;;7.10;99.90;;;;;;5067936;28;20043;-95
2021/01/27 07:54:38;;;;;;;55.33;12.02;;;7.10;99.90;;;;;;5055778;28;20024;-95
2021/01/27 07:57:19;;;;;;;61.97;12.95;;;7.10;99.90;;;;;;5067597;28;20021;-93
2021/01/27 08:02:28;;;;;;;58.00;13.82;;;7.00;99.90;;;;;;5094286;28;19942;-96
2021/01/27 08:05:01;;;;;;;54.50;13.48;;;7.10;99.90;;;;;;5085429;28;20017;-96
2021/01/27 08:07:37;;;;;;;57.10;12.68;;;7.10;99.90;;;;;;5065756;28;20080;-96
2021/01/27 08:16:02;;;;;;;45.05;12.88;;;7.10;99.90;;;;;;5036803;28;20064;-93
2021/01/27 08:18:27;;;;;;;51.20;11.80;;;7.20;99.90;;;;;;5016064;28;20097;-94
2021/01/27 08:21:24;;;;;;;52.00;13.43;;;7.10;99.90;;;;;;5023331;28;20021;-94
2021/01/27 08:23:50;;;;;;;54.47;11.35;;;7.10;99.90;;;;;;5027089;28;20080;-93
2021/01/27 08:26:42;;;;;;;57.72;12.32;;;7.10;99.90;;;;;;5017821;28;20041;-94
2021/01/27 08:29:24;;;;;;;58.03;14.38;;;7.10;99.90;;;;;;5017801;28;20147;-96
2021/01/27 08:32:22;;;;;;;50.92;12.63;;;7.10;99.90;;;;;;5046652;28;20029;-94
2021/01/27 08:34:49;;;;;;;45.33;10.13;;;7.10;99.90;;;;;;5050246;28;20017;-95
2021/01/27 08:37:25;;;;;;;44.10;10.88;;;7.10;99.90;;;;;;5031604;28;20029;-94
2021/01/27 08:40:26;;;;;;;44.15;11.25;;;7.20;99.90;;;;;;5029365;28;20022;-95
2021/01/27 08:42:53;;;;;;;41.30;9.60;;;7.10;99.90;;;;;;5043472;28;20030;-95
2021/01/27 08:45:22;;;;;;;36.38;9.48;;;7.10;99.90;;;;;;5025007;28;20017;-94
2021/01/27 08:47:52;;;;;;;49.85;11.23;;;7.10;99.90;;;;;;5036165;28;20021;-94
2021/01/27 08:50:47;;;;;;;52.00;11.23;;;7.10;99.90;;;;;;5032519;28;20037;-95
2021/01/27 08:53:21;;;;;;;51.97;9.60;;;7.10;99.90;;;;;;5015618;28;20417;-96
2021/01/27 08:55:50;;;;;;;38.03;9.73;;;7.10;99.90;;;;;;5016545;28;20120;-94
2021/01/27 08:58:39;;;;;;;43.60;10.23;;;7.10;99.90;;;;;;5017756;28;20029;-95
2021/01/27 09:01:31;;;;;;;27.85;8.80;;;7.10;99.90;;;;;;4987981;28;20093;-96
2021/01/27 09:03:59;;;;;;;44.28;10.20;;;7.10;99.90;;;;;;5014496;28;20025;-95
2021/01/27 09:06:43;;;;;;;47.88;9.93;;;7.10;99.90;;;;;;5015248;28;20030;-94
2021/01/27 09:09:12;;;;;;;37.47;9.98;;;7.10;99.90;;;;;;5015526;28;20099;-95
2021/01/27 09:11:38;;;;;;;41.72;10.07;;;7.10;99.90;;;;;;5012865;28;20026;-95
2021/01/27 09:14:06;;;;;;;34.05;9.63;;;7.20;99.90;;;;;;5010873;28;20025;-94
2021/01/27 09:16:33;;;;;;;50.83;10.15;;;7.20;99.90;;;;;;5001828;28;20022;-91
2021/01/27 09:19:10;;;;;;;46.72;8.65;;;7.20;99.90;;;;;;4996616;28;20030;-94
2021/01/27 09:21:36;;;;;;;46.38;8.75;;;7.20;99.90;;;;;;4995124;28;20033;-94
2021/01/27 09:24:06;;;;;;;30.45;8.55;;;7.20;99.90;;;;;;4997437;28;20033;-96
2021/01/27 09:26:41;;;;;;;29.10;8.05;;;7.20;99.90;;;;;;4995724;28;20025;-95
2021/01/27 09:29:27;;;;;;;32.88;7.57;;;7.20;99.90;;;;;;5013999;28;20098;-95
2021/01/27 09:31:54;;;;;;;31.27;9.00;;;7.30;99.90;;;;;;4996161;28;20401;-95
2021/01/27 09:34:30;;;;;;;42.65;7.68;;;7.30;99.90;;;;;;4988296;28;20453;-95
2021/01/27 09:37:06;;;;;;;34.25;7.60;;;7.30;99.90;;;;;;5015099;28;20041;-96
2021/01/27 09:39:34;;;;;;;41.00;8.98;;;7.30;99.90;;;;;;4999402;28;20025;-93
2021/01/27 09:42:27;;;;;;;40.28;7.88;;;7.30;99.90;;;;;;5000542;28;20068;-95
2021/01/27 09:45:04;;;;;;;35.50;7.57;;;7.30;99.90;;;;;;4997167;28;20042;-94
2021/01/27 09:47:32;;;;;;;47.28;9.38;;;7.30;99.90;;;;;;4998281;28;20022;-95
2021/01/27 09:50:00;;;;;;;53.05;9.65;;;7.30;99.90;;;;;;4999101;28;20048;-95
2021/01/27 09:52:27;;;;;;;46.33;9.23;;;7.30;99.90;;;;;;4996367;28;20153;-94
2021/01/27 09:55:04;;;;;;;47.30;9.98;;;7.30;99.90;;;;;;4999531;28;20033;-95
2021/01/27 09:57:30;;;;;;;52.28;9.85;;;7.30;99.90;;;;;;5016589;28;20045;-95
2021/01/27 09:59:57;;;;;;;40.50;7.82;;;7.40;99.90;;;;;;5017876;28;20019;-93
2021/01/27 10:02:32;;;;;;;44.10;8.05;;;7.40;99.90;;;;;;5000473;28;20057;-94
2021/01/27 10:04:59;;;;;;;39.03;7.70;;;7.40;99.90;;;;;;5001190;28;20384;-94
2021/01/27 10:07:30;;;;;;;48.65;9.05;;;7.40;99.90;;;;;;5000398;28;20018;-95
2021/01/27 10:10:04;;;;;;;48.28;6.80;;;7.40;99.90;;;;;;4999677;28;20042;-96
2021/01/27 10:12:32;;;;;;;39.08;7.72;;;7.50;99.90;;;;;;5016660;28;20088;-95
2021/01/27 10:15:08;;;;;;;45.90;8.77;;;7.50;99.90;;;;;;4999383;28;20049;-93
2021/01/27 10:17:33;;;;;;;50.53;7.47;;;7.50;99.90;;;;;;5017136;28;20105;-94
2021/01/27 10:20:30;;;;;;;58.45;8.63;;;7.50;99.90;;;;;;4998553;28;20125;-95
2021/01/27 10:23:01;;;;;;;47.17;8.68;;;7.50;99.90;;;;;;5003381;28;20034;-95
2021/01/27 10:25:44;;;;;;;;;;;7.60;99.90;;;;;;4997749;28;20022;-94
2021/01/27 10:28:22;;;;;;;44.95;9.30;;;7.60;99.90;;;;;;4996632;28;19909;-96
2021/01/27 10:31:00;;;;;;;53.15;7.38;;;7.60;99.90;;;;;;4994884;28;20097;-94
2021/01/27 10:33:47;;;;;;;43.58;7.63;;;7.60;99.90;;;;;;5016631;28;20037;-95
2021/01/27 10:36:31;;;;;;;50.95;8.50;;;7.60;99.90;;;;;;5015133;28;20033;-95
2021/01/27 10:39:29;;;;;;;49.45;9.57;;;7.60;99.90;;;;;;4997586;28;20057;-95
2021/01/27 10:42:07;;;;;;;48.63;10.63;;;7.60;99.90;;;;;;4987050;28;20042;-96
2021/01/27 10:44:39;;;;;;;46.08;9.35;;;7.60;99.90;;;;;;5013161;28;20029;-94
2021/01/27 10:47:07;;;;;;;52.53;10.85;;;7.70;99.90;;;;;;4997417;28;20034;-96
2021/01/27 10:49:48;;;;;;;46.70;8.55;;;7.70;99.90;;;;;;5017567;28;20129;-95
2021/01/27 10:52:29;;;;;;;50.40;8.80;;;7.70;99.90;;;;;;4998495;28;20014;-96
2021/01/27 10:54:58;;;;;;;48.72;9.07;;;7.70;99.90;;;;;;4997275;28;20033;-94
2021/01/27 10:57:27;;;;;;;47.50;8.85;;;7.70;99.90;;;;;;4999088;28;20029;-95
2021/01/27 10:59:53;;;;;;;53.45;8.35;;;7.70;99.90;;;;;;4997698;28;20415;-94
2021/01/27 11:02:19;;;;;;;41.88;9.52;;;7.70;99.90;;;;;;5001137;28;20022;-95
2021/01/27 11:04:45;;;;;;;48.25;9.20;;;7.80;99.90;;;;;;5003535;28;20030;-94
2021/01/27 11:07:11;;;;;;;48.80;9.32;;;7.80;99.90;;;;;;4998970;28;20021;-93
2021/01/27 11:09:37;;;;;;;42.38;7.38;;;7.80;99.90;;;;;;5017643;28;20102;-94
2021/01/27 11:12:03;;;;;;;49.72;8.55;;;7.80;99.90;;;;;;5020440;28;20053;-95
2021/01/27 11:14:28;;;;;;;44.22;9.05;;;7.80;99.90;;;;;;5000015;28;20115;-96
2021/01/27 11:16:54;;;;;;;37.83;7.05;;;7.80;99.90;;;;;;5000113;28;20057;-94
2021/01/27 11:19:20;;;;;;;43.97;7.28;;;7.80;99.90;;;;;;5001703;28;20049;-95
2021/01/27 11:21:46;;;;;;;50.35;8.00;;;7.90;99.90;;;;;;5001165;28;20077;-96
2021/01/27 11:24:11;;;;;;;60.78;8.82;;;7.90;99.90;;;;;;5016689;28;20022;-96
2021/01/27 11:26:37;;;;;;;51.45;10.13;;;7.90;99.90;;;;;;4999688;28;20025;-96
2021/01/27 11:29:05;;;;;;;40.15;7.00;;;7.90;99.90;;;;;;5003135;28;20053;-95
2021/01/27 11:31:31;;;;;;;45.72;6.57;;;8.00;99.90;;;;;;5000305;28;20033;-96
2021/01/27 11:33:58;;;;;;;49.08;6.88;;;7.90;99.90;;;;;;5011285;28;20026;-96
2021/01/27 11:36:25;;;;;;;50.10;8.88;;;7.90;99.90;;;;;;5009366;28;20097;-96
2021/01/27 11:38:53;;;;;;;48.70;7.38;;;8.00;99.90;;;;;;5011560;28;20045;-95
2021/01/27 11:41:20;;;;;;;47.47;6.72;;;8.00;99.90;;;;;;5015444;28;20026;-95
2021/01/27 11:43:48;;;;;;;46.83;7.20;;;7.90;99.90;;;;;;5011397;28;20022;-96
2021/01/27 11:46:18;;;;;;;49.08;7.35;;;8.00;99.90;;;;;;5015821;28;20014;-96
2021/01/27 11:48:45;;;;;;;44.58;6.85;;;8.00;99.90;;;;;;5013597;28;20018;-95
2021/01/27 11:51:14;;;;;;;53.92;7.45;;;8.00;99.90;;;;;;5035986;28;20042;-96
2021/01/27 11:53:41;;;;;;;52.97;7.50;;;8.00;99.90;;;;;;5008447;28;20057;-96
2021/01/27 11:56:41;;;;;;;47.42;7.97;;;8.00;99.90;;;;;;5013889;28;20038;-94
2021/01/27 12:04:16;;;;;;;63.50;9.52;;;8.10;99.90;;;;;;5071592;28;20052;-96
2021/01/27 12:06:41;;;;;;;54.28;7.88;;;8.10;99.90;;;;;;5056809;28;20096;-95
2021/01/27 12:09:07;;;;;;;38.95;6.60;;;8.20;99.90;;;;;;5051529;28;20151;-96
2021/01/27 12:11:33;;;;;;;40.78;7.00;;;8.20;99.90;;;;;;5058685;28;20017;-94
2021/01/27 12:13:59;;;;;;;38.45;7.45;;;8.20;99.90;;;;;;5059068;28;20770;-93
2021/01/27 12:16:24;;;;;;;50.47;6.63;;;8.20;99.90;;;;;;5054196;28;20491;-94
2021/01/27 12:18:50;;;;;;;41.70;6.82;;;8.20;99.90;;;;;;5048263;28;20031;-96
2021/01/27 12:21:16;;;;;;;36.45;5.95;;;8.20;99.90;;;;;;5043370;28;20545;-92
2021/01/27 12:23:42;;;;;;;47.47;8.38;;;8.30;99.90;;;;;;5050917;28;20534;-95
2021/01/27 12:26:16;;;;;;;48.70;10.68;;;8.30;99.90;;;;;;5067629;28;20025;-95
2021/01/27 12:29:11;;;;;;;47.30;7.68;;;8.30;99.90;;;;;;5074598;28;20442;-96
2021/01/27 12:31:45;;;;;;;39.53;6.35;;;8.40;99.90;;;;;;5041389;28;20154;-95
2021/01/27 12:34:12;;;;;;;44.85;7.15;;;8.30;99.90;;;;;;5056360;28;20029;-96
2021/01/27 12:36:43;;;;;;;35.03;6.30;;;8.40;99.90;;;;;;5062325;28;20063;-96
2021/01/27 12:39:10;;;;;;;46.17;7.45;;;8.40;99.90;;;;;;5088691;23;20050;-94
2021/01/27 12:41:36;;;;;;;43.95;6.95;;;8.40;99.90;;;;;;5021829;28;20132;-94
2021/01/27 12:44:14;;;;;;;35.30;7.05;;;8.40;99.90;;;;;;5019145;28;20045;-95
2021/01/27 12:46:40;;;;;;;43.15;6.22;;;8.40;99.90;;;;;;5023123;28;20053;-95
2021/01/27 12:49:08;;;;;;;45.15;7.60;;;8.40;99.90;;;;;;5033173;28;20033;-95
2021/01/27 12:51:35;;;;;;;39.13;6.43;;;8.40;99.90;;;;;;5021709;28;20092;-96
2021/01/27 12:54:41;;;;;;;38.10;6.15;;;8.40;99.90;;;;;;5023610;28;20045;-96
2021/01/27 12:57:31;;;;;;;38.22;5.38;;;8.40;99.90;;;;;;5050466;28;20014;-93
2021/01/27 13:02:46;;;;;;;28.95;5.57;;;8.50;99.90;;;;;;5390708;23;20037;-96
2021/01/27 13:15:58;;;;;;;42.83;5.90;;;8.70;99.90;;;;;;5005616;28;20560;-93
2021/01/27 13:18:24;;;;;;;43.42;7.93;;;8.70;99.90;;;;;;4976209;28;20074;-94
2021/01/27 13:20:49;;;;;;;32.95;6.60;;;8.70;99.90;;;;;;4986042;28;20026;-93
2021/01/27 13:23:15;;;;;;;47.40;6.88;;;8.70;99.90;;;;;;4982729;28;20042;-93
2021/01/27 13:25:41;;;;;;;35.83;5.68;;;8.70;99.90;;;;;;4976808;28;20039;-94
2021/01/27 13:28:07;;;;;;;32.03;7.05;;;8.70;99.90;;;;;;4980348;28;20030;-95
2021/01/27 13:30:35;;;;;;;36.45;5.60;;;8.70;99.90;;;;;;4978652;28;20068;-95
2021/01/27 13:33:02;;;;;;;49.65;6.60;;;8.70;99.90;;;;;;4980194;28;20023;-94
2021/01/27 13:35:29;;;;;;;38.58;5.32;;;8.70;99.90;;;;;;4980910;28;20057;-94
2021/01/27 13:37:55;;;;;;;42.75;5.85;;;8.70;99.90;;;;;;4979632;28;20030;-95
2021/01/27 13:40:22;;;;;;;39.20;5.40;;;8.70;99.90;;;;;;4982800;28;20019;-93
2021/01/27 13:42:48;;;;;;;33.58;5.40;;;8.70;99.90;;;;;;4980929;28;20485;-94
2021/01/27 13:45:14;;;;;;;35.00;5.85;;;8.70;99.90;;;;;;4977046;28;20026;-94
2021/01/27 13:47:41;;;;;;;39.67;5.50;;;8.70;99.90;;;;;;4980981;28;20053;-93
2021/01/27 13:50:10;;;;;;;38.13;5.40;;;8.70;99.90;;;;;;4977984;28;20100;-94
2021/01/27 13:52:36;;;;;;;48.78;6.32;;;8.70;99.90;;;;;;4976291;28;20109;-94
2021/01/27 13:55:02;;;;;;;43.35;7.63;;;8.70;99.90;;;;;;4976873;28;20025;-93
2021/01/27 13:57:28;;;;;;;31.27;5.22;;;8.70;99.90;;;;;;4975626;28;20118;-93
2021/01/27 13:59:54;;;;;;;33.13;6.93;;;8.70;99.90;;;;;;4973954;28;20122;-91
2021/01/27 14:02:19;;;;;;;37.33;9.32;;;8.70;99.90;;;;;;4975409;28;20014;-92
2021/01/27 14:04:45;;;;;;;40.78;8.02;;;8.70;99.90;;;;;;4985307;28;20030;-91
2021/01/27 14:07:11;;;;;;;35.33;8.80;;;8.70;99.90;;;;;;4976661;28;20082;-93
2021/01/27 14:09:36;;;;;;;46.85;7.45;;;8.70;99.90;;;;;;4974801;28;20038;-91
2021/01/27 14:12:02;;;;;;;48.13;7.40;;;8.70;99.90;;;;;;4976218;28;20022;-90
2021/01/27 14:14:28;;;;;;;38.45;6.30;;;8.70;99.90;;;;;;4977357;28;20413;-93
2021/01/27 14:16:53;;;;;;;39.72;6.82;;;8.60;99.90;;;;;;4978246;28;20405;-90
2021/01/27 14:19:19;;;;;;;42.15;7.13;;;8.60;99.90;;;;;;4977660;28;20025;-91
2021/01/27 14:21:45;;;;;;;46.38;7.20;;;8.60;99.90;;;;;;4977032;28;20077;-91
2021/01/27 14:24:11;;;;;;;36.88;5.32;;;8.60;99.90;;;;;;4980575;28;20043;-91
2021/01/27 14:26:36;;;;;;;40.58;5.80;;;8.60;99.90;;;;;;4979809;28;20049;-90
2021/01/27 14:29:03;;;;;;;43.88;7.38;;;8.60;99.90;;;;;;4978254;28;20066;-91
2021/01/27 14:31:29;;;;;;;45.97;8.00;;;8.60;99.90;;;;;;4980128;28;20022;-91
2021/01/27 14:33:54;;;;;;;35.33;5.65;;;8.60;99.90;;;;;;4977851;28;20030;-92
2021/01/27 14:36:21;;;;;;;36.30;5.55;;;8.70;99.90;;;;;;4979845;28;20089;-91
2021/01/27 14:38:47;;;;;;;58.40;8.90;;;8.70;99.90;;;;;;4978449;28;20492;-92
2021/01/27 14:41:12;;;;;;;30.50;5.70;;;8.70;99.90;;;;;;4977819;28;20023;-92
2021/01/27 14:43:43;;;;;;;52.15;7.88;;;8.70;99.90;;;;;;4995716;28;20026;-93
2021/01/27 14:46:09;;;;;;;;;;;8.70;99.90;;;;;;4977700;28;20034;-92
2021/01/27 14:48:35;;;;;;;36.17;5.90;;;8.70;99.90;;;;;;4969164;28;19914;-91
2021/01/27 14:51:01;;;;;;;35.03;5.70;;;8.60;99.90;;;;;;4975582;28;20126;-92
2021/01/27 14:53:26;;;;;;;33.53;6.85;;;8.60;99.90;;;;;;4974786;28;20383;-94
2021/01/27 14:55:52;;;;;;;40.42;5.28;;;8.60;99.90;;;;;;4974210;28;20034;-93
2021/01/27 14:58:18;;;;;;;35.10;7.35;;;8.60;99.90;;;;;;4974601;28;20034;-92
2021/01/27 15:00:43;;;;;;;38.63;6.32;;;8.60;99.90;;;;;;4975061;28;20080;-92
2021/01/27 15:03:09;;;;;;;33.17;6.22;;;8.60;99.90;;;;;;4976694;28;20041;-92
2021/01/27 15:05:35;;;;;;;39.30;6.45;;;8.50;99.90;;;;;;4975538;28;20481;-92
2021/01/27 15:08:01;;;;;;;37.67;6.43;;;8.50;99.90;;;;;;4975121;28;20617;-91
2021/01/27 15:10:29;;;;;;;40.20;6.60;;;8.60;99.90;;;;;;4976605;28;20034;-93
2021/01/27 15:12:55;;;;;;;40.65;7.30;;;8.60;99.90;;;;;;4976197;28;20120;-92
2021/01/27 15:15:21;;;;;;;35.42;6.18;;;8.60;99.90;;;;;;4975182;28;20046;-91
2021/01/27 15:17:47;;;;;;;40.80;7.75;;;8.60;99.90;;;;;;4977982;28;20500;-93
2021/01/27 15:20:22;;;;;;;48.55;7.90;;;8.60;99.90;;;;;;4977455;28;20026;-92
2021/01/27 15:22:47;;;;;;;51.30;8.65;;;8.60;99.90;;;;;;4977502;28;20536;-92
2021/01/27 15:25:14;;;;;;;43.28;8.32;;;8.60;99.90;;;;;;4979777;28;20058;-94
2021/01/27 15:27:40;;;;;;;63.10;8.98;;;8.60;99.90;;;;;;4986111;28;20023;-93
2021/01/27 15:30:09;;;;;;;51.40;8.00;;;8.60;99.90;;;;;;4985629;28;20042;-93
2021/01/27 15:32:35;;;;;;;51.83;7.80;;;8.60;99.90;;;;;;4982003;28;20473;-92
2021/01/27 15:35:05;;;;;;;47.40;7.60;;;8.50;99.90;;;;;;4961863;28;20018;-91
2021/01/27 15:37:31;;;;;;;44.63;7.77;;;8.60;99.90;;;;;;4976153;28;20130;-90
2021/01/27 15:39:57;;;;;;;52.70;9.40;;;8.60;99.90;;;;;;4977820;28;20792;-93
2021/01/27 15:42:23;;;;;;;41.55;6.35;;;8.60;99.90;;;;;;4979579;28;20037;-91
2021/01/27 15:44:49;;;;;;;38.13;6.70;;;8.50;99.90;;;;;;4979042;28;20026;-93
2021/01/27 15:47:14;;;;;;;41.35;6.47;;;8.60;99.90;;;;;;4996333;28;20019;-94
2021/01/27 15:49:40;;;;;;;42.90;6.32;;;8.50;99.90;;;;;;4978762;28;20057;-93
2021/01/27 15:52:06;;;;;;;31.77;6.68;;;8.50;99.90;;;;;;4978875;28;20026;-93
2021/01/27 15:54:32;;;;;;;41.38;5.85;;;8.50;99.90;;;;;;4976702;28;20474;-94
2021/01/27 15:56:58;;;;;;;44.55;7.55;;;8.50;99.90;;;;;;4992959;28;20030;-93
2021/01/27 15:59:27;;;;;;;34.78;6.10;;;8.50;99.90;;;;;;4977637;28;20498;-90
2021/01/27 16:01:54;;;;;;;38.92;7.75;;;8.50;99.90;;;;;;4974522;28;20157;-95
2021/01/27 16:04:22;;;;;;;39.85;7.88;;;8.50;99.90;;;;;;4976788;28;20405;-92
2021/01/27 16:06:48;;;;;;;29.83;6.70;;;8.40;99.90;;;;;;4977916;28;20019;-91
2021/01/27 16:09:15;;;;;;;39.20;8.20;;;8.40;99.90;;;;;;4978395;28;20038;-95
2021/01/27 16:11:42;;;;;;;44.35;6.85;;;8.40;99.90;;;;;;4976966;28;20474;-94
2021/01/27 16:14:08;;;;;;;41.95;7.60;;;8.40;99.90;;;;;;4973891;28;20042;-92
2021/01/27 16:16:35;;;;;;;42.35;7.53;;;8.30;99.90;;;;;;4958502;28;20034;-94
2021/01/27 16:19:05;;;;;;;42.92;7.85;;;8.30;99.90;;;;;;4958481;28;20023;-92
2021/01/27 16:21:32;;;;;;;40.70;8.02;;;8.30;99.90;;;;;;4957305;28;20054;-93
2021/01/27 16:23:57;;;;;;;40.15;8.05;;;8.30;99.90;;;;;;4958199;28;20069;-93
2021/01/27 16:26:25;;;;;;;41.85;8.20;;;8.20;99.90;;;;;;4959157;28;20055;-94
2021/01/27 16:28:53;;;;;;;25.17;6.78;;;8.20;99.90;;;;;;4966538;28;20023;-96
2021/01/27 16:31:39;;;;;;;27.55;6.65;;;8.20;99.90;;;;;;4973084;28;20047;-96
2021/01/27 16:34:34;;;;;;;40.65;7.30;;;8.20;99.90;;;;;;4966171;28;20046;-95
2021/01/27 16:37:01;;;;;;;24.25;5.95;;;8.10;99.90;;;;;;4936527;28;20030;-95
2021/01/27 16:39:47;;;;;;;28.02;7.10;;;8.10;99.90;;;;;;4972644;28;20423;-95
2021/01/27 16:42:19;;;;;;;48.85;9.18;;;8.00;99.90;;;;;;4957689;28;20034;-96
2021/01/27 16:44:49;;;;;;;33.55;6.90;;;8.00;99.90;;;;;;4970610;28;20027;-96
2021/01/27 16:47:23;;;;;;;46.95;7.97;;;8.00;99.90;;;;;;4969310;28;20089;-96
2021/01/27 16:49:50;;;;;;;34.45;7.13;;;7.90;99.90;;;;;;4968417;28;20041;-95
2021/01/27 16:52:16;;;;;;;32.70;6.63;;;7.90;99.90;;;;;;4968292;28;20108;-95
2021/01/27 16:54:47;;;;;;;25.55;5.22;;;7.80;99.90;;;;;;4970088;28;20030;-95
2021/01/27 16:57:16;;;;;;;35.35;6.53;;;7.90;99.90;;;;;;4967620;28;20035;-96
2021/01/27 16:59:42;;;;;;;37.72;6.60;;;7.80;99.90;;;;;;4970924;28;20058;-95
2021/01/27 17:02:12;;;;;;;26.85;5.50;;;7.80;99.90;;;;;;4971477;28;20046;-96
2021/01/27 17:04:43;;;;;;;45.13;7.70;;;7.80;99.90;;;;;;4959709;28;20121;-95
2021/01/27 17:07:09;;;;;;;47.72;9.25;;;7.70;99.90;;;;;;4954206;28;20062;-96
2021/01/27 17:09:35;;;;;;;46.03;8.00;;;7.70;99.90;;;;;;4969821;28;20035;-95
2021/01/27 17:12:46;;;;;;;30.67;6.05;;;7.70;99.90;;;;;;4974303;28;20018;-96
2021/01/27 17:15:25;;;;;;;40.10;6.85;;;7.70;99.90;;;;;;4984686;28;20038;-96
2021/01/27 17:17:50;;;;;;;31.13;6.65;;;7.60;99.90;;;;;;4989991;28;20046;-93
2021/01/27 17:20:19;;;;;;;31.65;5.63;;;7.60;99.90;;;;;;4985311;28;20022;-94
2021/01/27 17:22:52;;;;;;;38.28;6.07;;;7.60;99.90;;;;;;5043702;23;20122;-93
2021/01/27 17:25:20;;;;;;;40.25;7.70;;;7.60;99.90;;;;;;4998701;28;20094;-94
2021/01/27 17:27:50;;;;;;;20.25;5.90;;;7.60;99.90;;;;;;4994775;28;20050;-93
2021/01/27 17:30:19;;;;;;;28.02;6.20;;;7.60;99.90;;;;;;5000555;28;20042;-94
2021/01/27 17:32:45;;;;;;;31.92;7.88;;;7.50;99.90;;;;;;4978721;28;20065;-94
2021/01/27 17:35:11;;;;;;;17.63;5.28;;;7.50;99.90;;;;;;4986053;28;20022;-95
2021/01/27 17:37:37;;;;;;;21.27;5.70;;;7.50;99.90;;;;;;4987963;28;20491;-95
2021/01/27 17:40:04;;;;;;;22.98;5.55;;;7.50;99.90;;;;;;4986654;28;20030;-95
2021/01/27 17:42:30;;;;;;;26.95;5.55;;;7.50;99.90;;;;;;4985725;28;20026;-94
2021/01/27 17:44:59;;;;;;;40.95;6.55;;;7.50;99.90;;;;;;4989545;28;20041;-95
2021/01/27 17:47:24;;;;;;;21.33;5.25;;;7.40;99.90;;;;;;4988500;28;20029;-94
2021/01/27 17:49:50;;;;;;;20.50;5.32;;;7.40;99.90;;;;;;4990180;28;20026;-96
2021/01/27 17:52:16;;;;;;;34.63;6.40;;;7.40;99.90;;;;;;4987759;28;20022;-93
2021/01/27 17:54:42;;;;;;;34.33;7.95;;;7.40;99.90;;;;;;4992713;28;20033;-94
2021/01/27 17:57:09;;;;;;;28.00;6.85;;;7.40;99.90;;;;;;4992422;28;20038;-96
2021/01/27 17:59:35;;;;;;;29.77;6.20;;;7.30;99.90;;;;;;4985160;28;20113;-94
2021/01/27 18:02:01;;;;;;;23.75;5.55;;;7.30;99.90;;;;;;4983380;28;20058;-94
2021/01/27 18:04:27;;;;;;;35.78;5.45;;;7.30;99.90;;;;;;4984050;28;20026;-95
2021/01/27 18:06:53;;;;;;;24.13;5.88;;;7.30;99.90;;;;;;4984033;28;20027;-95
2021/01/27 18:09:18;;;;;;;22.52;5.80;;;7.20;99.90;;;;;;4982732;28;20042;-94
2021/01/27 18:11:44;;;;;;;34.30;9.18;;;7.20;99.90;;;;;;4982349;28;20023;-95
2021/01/27 18:14:10;;;;;;;28.27;6.13;;;7.20;99.90;;;;;;4982375;28;20181;-94
2021/01/27 18:16:37;;;;;;;25.00;7.10;;;7.10;99.90;;;;;;4980732;28;20030;-94
2021/01/27 18:19:05;;;;;;;31.02;7.53;;;7.10;99.90;;;;;;4982004;28;20033;-95
2021/01/27 18:21:30;;;;;;;30.40;9.02;;;7.10;99.90;;;;;;4983887;28;20022;-93
2021/01/27 18:23:56;;;;;;;37.67;11.23;;;7.10;99.90;;;;;;4983529;28;20053;-95
2021/01/27 18:26:24;;;;;;;40.35;12.40;;;7.00;99.90;;;;;;4981901;28;20461;-95
2021/01/27 18:28:51;;;;;;;38.20;11.80;;;7.00;99.90;;;;;;4976247;28;20022;-96
2021/01/27 18:31:17;;;;;;;39.75;13.02;;;7.00;99.90;;;;;;4978588;28;20037;-94
2021/01/27 18:33:43;;;;;;;34.33;11.13;;;6.90;99.90;;;;;;4985074;28;20022;-94
2021/01/27 18:36:12;;;;;;;39.20;9.73;;;6.90;99.90;;;;;;4996008;28;20034;-95
2021/01/27 18:38:40;;;;;;;31.95;9.80;;;6.90;99.90;;;;;;4994059;28;20034;-96
2021/01/27 18:41:06;;;;;;;26.88;8.68;;;6.90;99.90;;;;;;4976754;28;20031;-93
2021/01/27 18:43:34;;;;;;;34.10;9.50;;;6.80;99.90;;;;;;4969191;28;20463;-95
2021/01/27 18:46:02;;;;;;;34.00;9.32;;;6.80;99.90;;;;;;4967609;28;20334;-96
2021/01/27 18:48:32;;;;;;;33.35;8.05;;;6.80;99.90;;;;;;4970086;28;20125;-96
2021/01/27 18:51:03;;;;;;;30.02;8.60;;;6.80;99.90;;;;;;4969967;28;20070;-95
2021/01/27 18:53:29;;;;;;;41.65;9.20;;;6.80;99.90;;;;;;4976464;28;20061;-96
2021/01/27 18:55:56;;;;;;;38.03;10.00;;;6.80;99.90;;;;;;4967709;28;20129;-95
2021/01/27 18:58:24;;;;;;;25.98;7.95;;;6.70;99.90;;;;;;4981463;28;20057;-96
2021/01/27 19:00:52;;;;;;;31.52;8.80;;;6.70;99.90;;;;;;4981326;28;20034;-94
2021/01/27 19:03:18;;;;;;;34.08;8.18;;;6.70;99.90;;;;;;4998465;28;20021;-95
2021/01/27 19:05:44;;;;;;;31.17;9.35;;;6.70;99.90;;;;;;4993073;28;20035;-94
2021/01/27 19:08:10;;;;;;;33.50;8.77;;;6.70;99.90;;;;;;4969298;28;20039;-93
2021/01/27 19:10:37;;;;;;;38.83;11.27;;;6.60;99.90;;;;;;4983353;28;20034;-94
2021/01/27 19:13:04;;;;;;;38.72;13.43;;;6.60;99.90;;;;;;4959262;28;20118;-95
2021/01/27 19:15:40;;;;;;;37.13;10.20;;;6.60;99.90;;;;;;4961095;28;20039;-93
2021/01/27 19:18:08;;;;;;;35.80;12.20;;;6.60;99.90;;;;;;4952641;28;20058;-95
2021/01/27 19:20:34;;;;;;;46.33;12.73;;;6.60;99.90;;;;;;4952568;28;20023;-95
2021/01/27 19:23:11;;;;;;;38.42;12.05;;;6.50;99.90;;;;;;4949613;28;20491;-95
2021/01/27 19:25:39;;;;;;;34.83;10.93;;;6.50;99.90;;;;;;4957464;28;20047;-95
2021/01/27 19:28:05;;;;;;;46.90;13.95;;;6.50;99.90;;;;;;4951543;28;20031;-94
2021/01/27 19:30:33;;;;;;;40.30;14.30;;;6.50;99.90;;;;;;4947692;28;20031;-93
2021/01/27 19:33:01;;;;;;;36.05;11.00;;;6.40;99.90;;;;;;4944498;28;20027;-94
2021/01/27 19:35:33;;;;;;;35.47;12.38;;;6.40;99.90;;;;;;4961632;28;20045;-94
2021/01/27 19:37:59;;;;;;;38.75;11.63;;;6.40;99.90;;;;;;4948977;28;20031;-94
2021/01/27 19:40:26;;;;;;;47.05;12.30;;;6.40;99.90;;;;;;4946327;28;20426;-93
2021/01/27 19:42:53;;;;;;;45.80;12.60;;;6.40;99.90;;;;;;4946992;28;20491;-94
2021/01/27 19:45:27;;;;;;;41.55;12.77;;;6.40;99.90;;;;;;4977366;28;20037;-94
2021/01/27 19:47:53;;;;;;;42.35;13.13;;;6.40;99.90;;;;;;4948733;28;20550;-94